sensor_id;sensor_type;location;lat;lon;timestamp;temperature;humidity
8422;DHT22;4248;48.196;10.924;2024-01-15T00:02:17;-0.10;53.40
8422;DHT22;4248;48.196;10.924;2024-01-15T00:04:42;0.00;53.50
8422;DHT22;4248;48.196;10.924;2024-01-15T00:07:08;0.00;53.10
8422;DHT22;4248;48.196;10.924;2024-01-15T00:09:35;0.30;53.30
8422;DHT22;4248;48.196;10.924;2024-01-15T00:12:01;0.10;53.30
8422;DHT22;4248;48.196;10.924;2024-01-15T00:14:28;0.10;53.40
8422;DHT22;4248;48.196;10.924;2024-01-15T00:16:53;0.20;53.60
8422;DHT22;4248;48.196;10.924;2024-01-15T00:19:21;0.30;53.60
8422;DHT22;4248;48.196;10.924;2024-01-15T00:21:47;0.20;53.80
8422;DHT22;4248;48.196;10.924;2024-01-15T00:24:13;0.30;53.80
8422;DHT22;4248;48.196;10.924;2024-01-15T00:26:39;0.30;53.40
8422;DHT22;4248;48.196;10.924;2024-01-15T00:29:06;0.30;53.10
8422;DHT22;4248;48.196;10.924;2024-01-15T00:31:32;0.20;52.70
8422;DHT22;4248;48.196;10.924;2024-01-15T00:33:58;0.00;52.00
8422;DHT22;4248;48.196;10.924;2024-01-15T00:36:23;-0.20;51.60
8422;DHT22;4248;48.196;10.924;2024-01-15T00:38:49;-0.30;51.30
8422;DHT22;4248;48.196;10.924;2024-01-15T00:41:15;-0.40;51.10
8422;DHT22;4248;48.196;10.924;2024-01-15T00:43:40;-0.40;50.90
8422;DHT22;4248;48.196;10.924;2024-01-15T00:46:06;-0.50;50.20
8422;DHT22;4248;48.196;10.924;2024-01-15T00:48:32;-0.50;49.80
8422;DHT22;4248;48.196;10.924;2024-01-15T00:50:57;-0.60;49.30
8422;DHT22;4248;48.196;10.924;2024-01-15T00:53:23;-0.50;49.30
8422;DHT22;4248;48.196;10.924;2024-01-15T00:55:49;-0.60;48.90
8422;DHT22;4248;48.196;10.924;2024-01-15T00:58:14;-0.50;48.90
8422;DHT22;4248;48.196;10.924;2024-01-15T01:00:40;-0.50;48.60
8422;DHT22;4248;48.196;10.924;2024-01-15T01:03:06;-0.60;48.30
8422;DHT22;4248;48.196;10.924;2024-01-15T01:05:32;-0.50;48.20
8422;DHT22;4248;48.196;10.924;2024-01-15T01:07:58;-0.60;47.80
8422;DHT22;4248;48.196;10.924;2024-01-15T01:10:23;-0.70;47.60
8422;DHT22;4248;48.196;10.924;2024-01-15T01:12:49;-0.80;47.90
8422;DHT22;4248;48.196;10.924;2024-01-15T01:15:15;-0.80;47.90
8422;DHT22;4248;48.196;10.924;2024-01-15T01:17:40;-0.90;47.60
8422;DHT22;4248;48.196;10.924;2024-01-15T01:20:06;-1.10;47.10
8422;DHT22;4248;48.196;10.924;2024-01-15T01:22:34;-1.20;46.70
8422;DHT22;4248;48.196;10.924;2024-01-15T01:25:00;-1.20;46.30
8422;DHT22;4248;48.196;10.924;2024-01-15T01:27:25;-1.30;46.50
8422;DHT22;4248;48.196;10.924;2024-01-15T01:29:51;-1.40;46.40
8422;DHT22;4248;48.196;10.924;2024-01-15T01:32:17;-1.40;46.50
8422;DHT22;4248;48.196;10.924;2024-01-15T01:34:43;-1.50;46.60
8422;DHT22;4248;48.196;10.924;2024-01-15T01:37:09;-1.50;46.60
8422;DHT22;4248;48.196;10.924;2024-01-15T01:39:35;-1.50;46.60
8422;DHT22;4248;48.196;10.924;2024-01-15T01:42:00;-1.50;46.70
8422;DHT22;4248;48.196;10.924;2024-01-15T01:44:26;-1.60;46.50
8422;DHT22;4248;48.196;10.924;2024-01-15T01:46:52;-1.60;46.40
8422;DHT22;4248;48.196;10.924;2024-01-15T01:49:18;-1.60;46.30
8422;DHT22;4248;48.196;10.924;2024-01-15T01:51:44;-1.60;46.20
8422;DHT22;4248;48.196;10.924;2024-01-15T01:54:11;-1.60;46.10
8422;DHT22;4248;48.196;10.924;2024-01-15T01:56:40;-1.60;47.20
8422;DHT22;4248;48.196;10.924;2024-01-15T01:59:06;-1.70;46.20
8422;DHT22;4248;48.196;10.924;2024-01-15T02:01:33;-1.70;46.20
8422;DHT22;4248;48.196;10.924;2024-01-15T02:03:59;-1.80;46.10
8422;DHT22;4248;48.196;10.924;2024-01-15T02:06:25;-1.80;46.20
8422;DHT22;4248;48.196;10.924;2024-01-15T02:08:51;-1.80;46.20
8422;DHT22;4248;48.196;10.924;2024-01-15T02:11:16;-1.80;46.30
8422;DHT22;4248;48.196;10.924;2024-01-15T02:13:42;-1.90;46.20
8422;DHT22;4248;48.196;10.924;2024-01-15T02:16:08;-2.00;46.20
8422;DHT22;4248;48.196;10.924;2024-01-15T02:18:43;-2.00;46.40
8422;DHT22;4248;48.196;10.924;2024-01-15T02:21:10;-2.00;46.50
8422;DHT22;4248;48.196;10.924;2024-01-15T02:23:36;-2.00;46.60
8422;DHT22;4248;48.196;10.924;2024-01-15T02:26:03;-2.00;46.70
8422;DHT22;4248;48.196;10.924;2024-01-15T02:28:29;-1.90;46.60
8422;DHT22;4248;48.196;10.924;2024-01-15T02:30:55;-1.90;46.40
8422;DHT22;4248;48.196;10.924;2024-01-15T02:33:21;-1.80;46.20
8422;DHT22;4248;48.196;10.924;2024-01-15T02:35:46;-1.80;46.00
8422;DHT22;4248;48.196;10.924;2024-01-15T02:38:16;-1.70;45.90
8422;DHT22;4248;48.196;10.924;2024-01-15T02:40:43;-1.60;45.50
8422;DHT22;4248;48.196;10.924;2024-01-15T02:43:08;-1.60;45.10
8422;DHT22;4248;48.196;10.924;2024-01-15T02:45:34;-1.50;44.90
8422;DHT22;4248;48.196;10.924;2024-01-15T02:48:00;-1.50;44.80
8422;DHT22;4248;48.196;10.924;2024-01-15T02:50:25;-1.60;44.90
8422;DHT22;4248;48.196;10.924;2024-01-15T02:52:51;-1.60;45.20
8422;DHT22;4248;48.196;10.924;2024-01-15T02:55:17;-1.70;45.40
8422;DHT22;4248;48.196;10.924;2024-01-15T02:57:43;-1.80;45.70
8422;DHT22;4248;48.196;10.924;2024-01-15T03:00:09;-1.90;45.80
8422;DHT22;4248;48.196;10.924;2024-01-15T03:02:39;-2.00;46.10
8422;DHT22;4248;48.196;10.924;2024-01-15T03:05:09;-2.00;46.40
8422;DHT22;4248;48.196;10.924;2024-01-15T03:07:34;-2.10;46.60
8422;DHT22;4248;48.196;10.924;2024-01-15T03:10:00;-2.10;46.80
8422;DHT22;4248;48.196;10.924;2024-01-15T03:12:26;-2.00;47.00
8422;DHT22;4248;48.196;10.924;2024-01-15T03:14:51;-2.10;47.00
8422;DHT22;4248;48.196;10.924;2024-01-15T03:17:17;-2.10;47.10
8422;DHT22;4248;48.196;10.924;2024-01-15T03:19:42;-2.20;47.00
8422;DHT22;4248;48.196;10.924;2024-01-15T03:22:08;-2.10;47.10
8422;DHT22;4248;48.196;10.924;2024-01-15T03:24:34;-2.20;47.00
8422;DHT22;4248;48.196;10.924;2024-01-15T03:27:00;-2.30;46.90
8422;DHT22;4248;48.196;10.924;2024-01-15T03:29:26;-2.30;46.90
8422;DHT22;4248;48.196;10.924;2024-01-15T03:31:52;-2.30;47.00
8422;DHT22;4248;48.196;10.924;2024-01-15T03:34:18;-2.30;46.80
8422;DHT22;4248;48.196;10.924;2024-01-15T03:36:44;-2.30;46.80
8422;DHT22;4248;48.196;10.924;2024-01-15T03:39:09;-2.20;46.90
8422;DHT22;4248;48.196;10.924;2024-01-15T03:41:35;-2.10;47.40
8422;DHT22;4248;48.196;10.924;2024-01-15T03:44:01;-2.00;47.50
8422;DHT22;4248;48.196;10.924;2024-01-15T03:46:26;-1.90;47.50
8422;DHT22;4248;48.196;10.924;2024-01-15T03:48:52;-1.80;47.40
8422;DHT22;4248;48.196;10.924;2024-01-15T03:51:18;-1.80;47.20
8422;DHT22;4248;48.196;10.924;2024-01-15T03:53:44;-1.70;47.00
8422;DHT22;4248;48.196;10.924;2024-01-15T03:56:10;-1.80;46.90
8422;DHT22;4248;48.196;10.924;2024-01-15T03:58:35;-1.70;47.10
8422;DHT22;4248;48.196;10.924;2024-01-15T04:01:01;-1.60;46.90
8422;DHT22;4248;48.196;10.924;2024-01-15T04:03:27;-1.50;46.40
8422;DHT22;4248;48.196;10.924;2024-01-15T04:05:52;-1.30;45.60
8422;DHT22;4248;48.196;10.924;2024-01-15T04:08:18;-1.10;45.00
8422;DHT22;4248;48.196;10.924;2024-01-15T04:10:43;-1.00;44.40
8422;DHT22;4248;48.196;10.924;2024-01-15T04:13:09;-1.00;44.00
8422;DHT22;4248;48.196;10.924;2024-01-15T04:15:34;-1.00;43.80
8422;DHT22;4248;48.196;10.924;2024-01-15T04:18:02;-0.80;43.80
8422;DHT22;4248;48.196;10.924;2024-01-15T04:20:28;-0.90;43.40
8422;DHT22;4248;48.196;10.924;2024-01-15T04:22:53;-0.90;43.30
8422;DHT22;4248;48.196;10.924;2024-01-15T04:25:19;-0.80;43.30
8422;DHT22;4248;48.196;10.924;2024-01-15T04:27:44;-0.90;43.30
8422;DHT22;4248;48.196;10.924;2024-01-15T04:30:10;-0.80;43.30
8422;DHT22;4248;48.196;10.924;2024-01-15T04:32:36;-0.70;43.40
8422;DHT22;4248;48.196;10.924;2024-01-15T04:35:02;-0.70;43.40
8422;DHT22;4248;48.196;10.924;2024-01-15T04:37:27;-0.70;43.40
8422;DHT22;4248;48.196;10.924;2024-01-15T04:39:53;-0.70;43.40
8422;DHT22;4248;48.196;10.924;2024-01-15T04:42:21;-0.80;43.40
8422;DHT22;4248;48.196;10.924;2024-01-15T04:44:47;-0.80;43.30
8422;DHT22;4248;48.196;10.924;2024-01-15T04:47:12;-0.90;43.30
8422;DHT22;4248;48.196;10.924;2024-01-15T04:49:38;-0.90;43.30
8422;DHT22;4248;48.196;10.924;2024-01-15T04:52:04;-1.00;43.20
8422;DHT22;4248;48.196;10.924;2024-01-15T04:54:29;-0.90;43.30
8422;DHT22;4248;48.196;10.924;2024-01-15T04:56:55;-0.80;43.40
8422;DHT22;4248;48.196;10.924;2024-01-15T04:59:21;-0.80;43.30
8422;DHT22;4248;48.196;10.924;2024-01-15T05:01:46;-0.70;43.30
8422;DHT22;4248;48.196;10.924;2024-01-15T05:04:12;-0.70;42.70
8422;DHT22;4248;48.196;10.924;2024-01-15T05:06:38;-0.60;42.60
8422;DHT22;4248;48.196;10.924;2024-01-15T05:09:04;-0.60;42.30
8422;DHT22;4248;48.196;10.924;2024-01-15T05:11:29;-0.50;42.30
8422;DHT22;4248;48.196;10.924;2024-01-15T05:13:55;-0.50;42.00
8422;DHT22;4248;48.196;10.924;2024-01-15T05:16:21;-0.40;41.90
8422;DHT22;4248;48.196;10.924;2024-01-15T05:18:46;-0.30;41.40
8422;DHT22;4248;48.196;10.924;2024-01-15T05:21:12;-0.30;41.20
8422;DHT22;4248;48.196;10.924;2024-01-15T05:23:38;-0.30;41.00
8422;DHT22;4248;48.196;10.924;2024-01-15T05:26:03;-0.30;40.90
8422;DHT22;4248;48.196;10.924;2024-01-15T05:28:29;-0.20;40.80
8422;DHT22;4248;48.196;10.924;2024-01-15T05:30:55;-0.20;40.70
8422;DHT22;4248;48.196;10.924;2024-01-15T05:33:24;-0.20;40.60
8422;DHT22;4248;48.196;10.924;2024-01-15T05:35:49;-0.20;40.50
8422;DHT22;4248;48.196;10.924;2024-01-15T05:38:16;-0.10;40.40
8422;DHT22;4248;48.196;10.924;2024-01-15T05:40:42;-0.20;40.30
8422;DHT22;4248;48.196;10.924;2024-01-15T05:43:07;-0.20;40.40
8422;DHT22;4248;48.196;10.924;2024-01-15T05:45:35;-0.10;40.40
8422;DHT22;4248;48.196;10.924;2024-01-15T05:48:01;-0.10;40.40
8422;DHT22;4248;48.196;10.924;2024-01-15T05:50:26;-0.10;40.20
8422;DHT22;4248;48.196;10.924;2024-01-15T05:52:52;-0.10;40.10
8422;DHT22;4248;48.196;10.924;2024-01-15T05:55:18;-0.10;40.10
8422;DHT22;4248;48.196;10.924;2024-01-15T05:57:44;-0.10;40.30
8422;DHT22;4248;48.196;10.924;2024-01-15T06:00:10;-0.10;40.20
8422;DHT22;4248;48.196;10.924;2024-01-15T06:02:39;-0.10;40.20
8422;DHT22;4248;48.196;10.924;2024-01-15T06:05:05;-0.10;40.20
8422;DHT22;4248;48.196;10.924;2024-01-15T06:07:33;-0.10;40.30
8422;DHT22;4248;48.196;10.924;2024-01-15T06:09:59;-0.10;40.10
8422;DHT22;4248;48.196;10.924;2024-01-15T06:12:24;-0.10;40.10
8422;DHT22;4248;48.196;10.924;2024-01-15T06:14:50;-0.10;40.30
8422;DHT22;4248;48.196;10.924;2024-01-15T06:17:15;-0.10;40.20
8422;DHT22;4248;48.196;10.924;2024-01-15T06:19:41;0.00;40.10
8422;DHT22;4248;48.196;10.924;2024-01-15T06:22:07;0.00;40.10
8422;DHT22;4248;48.196;10.924;2024-01-15T06:24:32;0.00;40.00
8422;DHT22;4248;48.196;10.924;2024-01-15T06:26:58;0.00;40.00
8422;DHT22;4248;48.196;10.924;2024-01-15T06:29:26;0.00;41.10
8422;DHT22;4248;48.196;10.924;2024-01-15T06:31:51;0.00;39.80
8422;DHT22;4248;48.196;10.924;2024-01-15T06:34:17;0.00;39.70
8422;DHT22;4248;48.196;10.924;2024-01-15T06:36:43;0.10;39.80
8422;DHT22;4248;48.196;10.924;2024-01-15T06:39:08;0.10;40.00
8422;DHT22;4248;48.196;10.924;2024-01-15T06:41:35;0.00;39.90
8422;DHT22;4248;48.196;10.924;2024-01-15T06:44:06;0.10;39.90
8422;DHT22;4248;48.196;10.924;2024-01-15T06:46:32;0.00;39.80
8422;DHT22;4248;48.196;10.924;2024-01-15T06:48:57;0.10;40.10
8422;DHT22;4248;48.196;10.924;2024-01-15T06:51:23;0.00;41.20
8422;DHT22;4248;48.196;10.924;2024-01-15T06:53:49;0.00;40.40
8422;DHT22;4248;48.196;10.924;2024-01-15T06:56:14;-0.10;40.40
8422;DHT22;4248;48.196;10.924;2024-01-15T06:58:40;-0.10;40.40
8422;DHT22;4248;48.196;10.924;2024-01-15T07:01:05;-0.10;40.50
8422;DHT22;4248;48.196;10.924;2024-01-15T07:03:31;-0.20;40.70
8422;DHT22;4248;48.196;10.924;2024-01-15T07:05:57;-0.10;40.80
8422;DHT22;4248;48.196;10.924;2024-01-15T07:08:22;-0.10;40.70
8422;DHT22;4248;48.196;10.924;2024-01-15T07:10:48;-0.20;40.70
8422;DHT22;4248;48.196;10.924;2024-01-15T07:13:13;-0.20;40.90
8422;DHT22;4248;48.196;10.924;2024-01-15T07:15:39;-0.20;40.90
8422;DHT22;4248;48.196;10.924;2024-01-15T07:18:05;-0.10;40.80
8422;DHT22;4248;48.196;10.924;2024-01-15T07:20:30;-0.10;40.60
8422;DHT22;4248;48.196;10.924;2024-01-15T07:22:56;0.00;40.40
8422;DHT22;4248;48.196;10.924;2024-01-15T07:25:22;0.10;40.30
8422;DHT22;4248;48.196;10.924;2024-01-15T07:27:47;0.10;40.10
8422;DHT22;4248;48.196;10.924;2024-01-15T07:30:13;0.00;40.10
8422;DHT22;4248;48.196;10.924;2024-01-15T07:32:39;-0.10;40.70
8422;DHT22;4248;48.196;10.924;2024-01-15T07:35:06;0.00;40.60
8422;DHT22;4248;48.196;10.924;2024-01-15T07:37:31;0.10;40.50
8422;DHT22;4248;48.196;10.924;2024-01-15T07:39:57;0.10;40.30
8422;DHT22;4248;48.196;10.924;2024-01-15T07:42:22;0.20;40.40
8422;DHT22;4248;48.196;10.924;2024-01-15T07:44:48;0.20;40.10
8422;DHT22;4248;48.196;10.924;2024-01-15T07:47:13;0.30;40.00
8422;DHT22;4248;48.196;10.924;2024-01-15T07:49:39;0.30;39.90
8422;DHT22;4248;48.196;10.924;2024-01-15T07:52:05;0.40;40.00
8422;DHT22;4248;48.196;10.924;2024-01-15T07:54:31;0.40;39.80
8422;DHT22;4248;48.196;10.924;2024-01-15T07:57:00;0.50;39.60
8422;DHT22;4248;48.196;10.924;2024-01-15T07:59:26;0.50;39.40
8422;DHT22;4248;48.196;10.924;2024-01-15T08:01:52;0.60;39.30
8422;DHT22;4248;48.196;10.924;2024-01-15T08:04:18;0.60;39.20
8422;DHT22;4248;48.196;10.924;2024-01-15T08:06:44;0.70;39.10
8422;DHT22;4248;48.196;10.924;2024-01-15T08:09:10;0.70;38.90
8422;DHT22;4248;48.196;10.924;2024-01-15T08:11:39;0.80;38.90
8422;DHT22;4248;48.196;10.924;2024-01-15T08:14:06;0.70;38.80
8422;DHT22;4248;48.196;10.924;2024-01-15T08:16:32;0.90;39.10
8422;DHT22;4248;48.196;10.924;2024-01-15T08:18:58;0.70;39.00
8422;DHT22;4248;48.196;10.924;2024-01-15T08:21:23;0.80;39.20
8422;DHT22;4248;48.196;10.924;2024-01-15T08:23:49;0.90;39.10
8422;DHT22;4248;48.196;10.924;2024-01-15T08:26:14;0.90;38.80
8422;DHT22;4248;48.196;10.924;2024-01-15T08:28:40;1.00;38.60
8422;DHT22;4248;48.196;10.924;2024-01-15T08:31:05;1.00;38.60
8422;DHT22;4248;48.196;10.924;2024-01-15T08:33:31;1.00;38.50
8422;DHT22;4248;48.196;10.924;2024-01-15T08:35:56;1.10;38.60
8422;DHT22;4248;48.196;10.924;2024-01-15T08:38:22;1.00;38.70
8422;DHT22;4248;48.196;10.924;2024-01-15T08:40:49;1.10;38.70
8422;DHT22;4248;48.196;10.924;2024-01-15T08:43:15;1.20;38.60
8422;DHT22;4248;48.196;10.924;2024-01-15T08:45:40;1.20;38.50
8422;DHT22;4248;48.196;10.924;2024-01-15T08:48:06;1.20;38.40
8422;DHT22;4248;48.196;10.924;2024-01-15T08:50:32;1.20;38.30
8422;DHT22;4248;48.196;10.924;2024-01-15T08:52:58;1.30;38.30
8422;DHT22;4248;48.196;10.924;2024-01-15T08:55:24;1.30;38.30
8422;DHT22;4248;48.196;10.924;2024-01-15T08:57:50;1.50;38.00
8422;DHT22;4248;48.196;10.924;2024-01-15T09:00:16;1.50;37.70
8422;DHT22;4248;48.196;10.924;2024-01-15T09:02:42;1.50;37.60
8422;DHT22;4248;48.196;10.924;2024-01-15T09:05:08;1.60;37.40
8422;DHT22;4248;48.196;10.924;2024-01-15T09:07:33;1.60;37.30
8422;DHT22;4248;48.196;10.924;2024-01-15T09:09:59;1.60;37.20
8422;DHT22;4248;48.196;10.924;2024-01-15T09:12:25;1.70;37.20
8422;DHT22;4248;48.196;10.924;2024-01-15T09:14:51;1.70;37.20
8422;DHT22;4248;48.196;10.924;2024-01-15T09:17:17;1.80;37.00
8422;DHT22;4248;48.196;10.924;2024-01-15T09:19:43;1.80;36.70
8422;DHT22;4248;48.196;10.924;2024-01-15T09:22:09;1.80;36.60
8422;DHT22;4248;48.196;10.924;2024-01-15T09:24:35;1.80;36.70
8422;DHT22;4248;48.196;10.924;2024-01-15T09:27:01;1.90;36.60
8422;DHT22;4248;48.196;10.924;2024-01-15T09:29:28;1.90;36.70
8422;DHT22;4248;48.196;10.924;2024-01-15T09:31:54;1.90;36.60
8422;DHT22;4248;48.196;10.924;2024-01-15T09:34:19;2.00;36.50
8422;DHT22;4248;48.196;10.924;2024-01-15T09:36:45;2.00;36.30
8422;DHT22;4248;48.196;10.924;2024-01-15T09:39:10;2.10;36.10
8422;DHT22;4248;48.196;10.924;2024-01-15T09:41:39;2.00;35.90
8422;DHT22;4248;48.196;10.924;2024-01-15T09:44:05;2.00;35.80
8422;DHT22;4248;48.196;10.924;2024-01-15T09:46:33;2.10;35.70
8422;DHT22;4248;48.196;10.924;2024-01-15T09:48:59;2.10;35.50
8422;DHT22;4248;48.196;10.924;2024-01-15T09:51:25;2.10;35.50
8422;DHT22;4248;48.196;10.924;2024-01-15T09:53:51;2.10;35.50
8422;DHT22;4248;48.196;10.924;2024-01-15T09:56:18;2.20;35.20
8422;DHT22;4248;48.196;10.924;2024-01-15T09:58:44;2.30;35.10
8422;DHT22;4248;48.196;10.924;2024-01-15T10:01:11;2.40;34.70
8422;DHT22;4248;48.196;10.924;2024-01-15T10:03:37;2.50;34.40
8422;DHT22;4248;48.196;10.924;2024-01-15T10:06:04;2.60;34.40
8422;DHT22;4248;48.196;10.924;2024-01-15T10:08:31;2.40;34.30
8422;DHT22;4248;48.196;10.924;2024-01-15T10:10:58;2.30;35.10
8422;DHT22;4248;48.196;10.924;2024-01-15T10:13:23;2.00;35.70
8422;DHT22;4248;48.196;10.924;2024-01-15T10:15:49;1.90;36.40
8422;DHT22;4248;48.196;10.924;2024-01-15T10:18:15;1.50;36.80
8422;DHT22;4248;48.196;10.924;2024-01-15T10:20:41;1.30;37.10
8422;DHT22;4248;48.196;10.924;2024-01-15T10:23:08;1.10;37.30
8422;DHT22;4248;48.196;10.924;2024-01-15T10:25:35;1.00;37.50
8422;DHT22;4248;48.196;10.924;2024-01-15T10:28:03;0.90;37.50
8422;DHT22;4248;48.196;10.924;2024-01-15T10:30:29;0.90;37.50
8422;DHT22;4248;48.196;10.924;2024-01-15T10:33:01;0.80;37.30
8422;DHT22;4248;48.196;10.924;2024-01-15T10:35:29;0.80;37.20
8422;DHT22;4248;48.196;10.924;2024-01-15T10:37:55;0.70;37.20
8422;DHT22;4248;48.196;10.924;2024-01-15T10:40:20;0.70;37.10
8422;DHT22;4248;48.196;10.924;2024-01-15T10:42:46;0.70;36.90
8422;DHT22;4248;48.196;10.924;2024-01-15T10:45:15;0.70;36.80
8422;DHT22;4248;48.196;10.924;2024-01-15T10:47:42;0.70;36.70
8422;DHT22;4248;48.196;10.924;2024-01-15T10:50:09;0.70;36.50
8422;DHT22;4248;48.196;10.924;2024-01-15T10:52:36;0.70;36.40
8422;DHT22;4248;48.196;10.924;2024-01-15T10:55:03;0.70;36.30
8422;DHT22;4248;48.196;10.924;2024-01-15T10:57:30;0.70;36.20
8422;DHT22;4248;48.196;10.924;2024-01-15T10:59:55;0.70;36.10
8422;DHT22;4248;48.196;10.924;2024-01-15T11:02:21;0.80;37.20
8422;DHT22;4248;48.196;10.924;2024-01-15T11:04:47;1.00;35.80
8422;DHT22;4248;48.196;10.924;2024-01-15T11:07:13;1.40;35.50
8422;DHT22;4248;48.196;10.924;2024-01-15T11:09:39;1.70;34.90
8422;DHT22;4248;48.196;10.924;2024-01-15T11:12:12;2.10;34.40
8422;DHT22;4248;48.196;10.924;2024-01-15T11:14:45;2.40;33.40
8422;DHT22;4248;48.196;10.924;2024-01-15T11:17:11;2.60;33.00
8422;DHT22;4248;48.196;10.924;2024-01-15T11:19:49;2.70;33.10
8422;DHT22;4248;48.196;10.924;2024-01-15T11:24:56;2.60;33.00
8422;DHT22;4248;48.196;10.924;2024-01-15T11:27:42;2.70;33.10
8422;DHT22;4248;48.196;10.924;2024-01-15T11:30:09;2.90;33.30
8422;DHT22;4248;48.196;10.924;2024-01-15T11:32:36;3.00;33.30
8422;DHT22;4248;48.196;10.924;2024-01-15T11:35:02;3.30;32.30
8422;DHT22;4248;48.196;10.924;2024-01-15T11:40:36;4.00;30.30
8422;DHT22;4248;48.196;10.924;2024-01-15T11:43:04;4.50;29.50
8422;DHT22;4248;48.196;10.924;2024-01-15T11:45:31;4.80;29.00
8422;DHT22;4248;48.196;10.924;2024-01-15T11:48:09;5.00;28.40
8422;DHT22;4248;48.196;10.924;2024-01-15T11:53:15;5.30;28.30
8422;DHT22;4248;48.196;10.924;2024-01-15T11:55:44;4.90;28.60
8422;DHT22;4248;48.196;10.924;2024-01-15T11:58:11;4.50;29.40
8422;DHT22;4248;48.196;10.924;2024-01-15T12:00:40;4.10;30.00
8422;DHT22;4248;48.196;10.924;2024-01-15T12:03:08;3.90;30.40
8422;DHT22;4248;48.196;10.924;2024-01-15T12:05:37;3.90;31.60
8422;DHT22;4248;48.196;10.924;2024-01-15T12:08:03;3.90;30.50
8422;DHT22;4248;48.196;10.924;2024-01-15T12:10:29;3.80;30.30
8422;DHT22;4248;48.196;10.924;2024-01-15T12:12:58;3.80;30.20
8422;DHT22;4248;48.196;10.924;2024-01-15T12:15:26;3.80;29.90
8422;DHT22;4248;48.196;10.924;2024-01-15T12:17:52;3.90;29.70
8422;DHT22;4248;48.196;10.924;2024-01-15T12:20:19;4.00;29.10
8422;DHT22;4248;48.196;10.924;2024-01-15T12:22:46;4.20;28.60
8422;DHT22;4248;48.196;10.924;2024-01-15T12:25:11;4.50;28.10
8422;DHT22;4248;48.196;10.924;2024-01-15T12:27:37;4.60;27.60
8422;DHT22;4248;48.196;10.924;2024-01-15T12:30:03;4.70;27.30
8422;DHT22;4248;48.196;10.924;2024-01-15T12:32:29;4.70;27.10
8422;DHT22;4248;48.196;10.924;2024-01-15T12:34:55;4.80;26.90
8422;DHT22;4248;48.196;10.924;2024-01-15T12:37:21;4.70;26.80
8422;DHT22;4248;48.196;10.924;2024-01-15T12:39:47;4.80;26.80
8422;DHT22;4248;48.196;10.924;2024-01-15T12:42:16;4.80;26.70
8422;DHT22;4248;48.196;10.924;2024-01-15T12:44:45;4.90;26.50
8422;DHT22;4248;48.196;10.924;2024-01-15T12:47:11;4.90;26.10
8422;DHT22;4248;48.196;10.924;2024-01-15T12:49:37;4.90;26.10
8422;DHT22;4248;48.196;10.924;2024-01-15T12:52:03;4.90;26.10
8422;DHT22;4248;48.196;10.924;2024-01-15T12:54:29;4.50;26.00
8422;DHT22;4248;48.196;10.924;2024-01-15T12:56:54;4.20;25.70
8422;DHT22;4248;48.196;10.924;2024-01-15T12:59:20;3.90;25.80
8422;DHT22;4248;48.196;10.924;2024-01-15T13:01:46;3.50;26.00
8422;DHT22;4248;48.196;10.924;2024-01-15T13:04:20;3.10;25.90
8422;DHT22;4248;48.196;10.924;2024-01-15T13:06:46;2.90;26.80
8422;DHT22;4248;48.196;10.924;2024-01-15T13:09:12;2.80;27.10
8422;DHT22;4248;48.196;10.924;2024-01-15T13:11:37;2.70;27.50
8422;DHT22;4248;48.196;10.924;2024-01-15T13:14:03;2.80;28.40
8422;DHT22;4248;48.196;10.924;2024-01-15T13:16:28;3.00;27.10
8422;DHT22;4248;48.196;10.924;2024-01-15T13:18:55;3.30;26.90
8422;DHT22;4248;48.196;10.924;2024-01-15T13:21:21;3.40;26.70
8422;DHT22;4248;48.196;10.924;2024-01-15T13:23:47;3.20;26.70
8422;DHT22;4248;48.196;10.924;2024-01-15T13:26:13;3.10;27.10
8422;DHT22;4248;48.196;10.924;2024-01-15T13:28:38;2.90;27.60
8422;DHT22;4248;48.196;10.924;2024-01-15T13:31:04;2.50;28.60
8422;DHT22;4248;48.196;10.924;2024-01-15T13:33:30;2.40;29.20
8422;DHT22;4248;48.196;10.924;2024-01-15T13:35:56;2.30;29.50
8422;DHT22;4248;48.196;10.924;2024-01-15T13:38:21;2.20;29.80
8422;DHT22;4248;48.196;10.924;2024-01-15T13:40:47;2.20;30.00
8422;DHT22;4248;48.196;10.924;2024-01-15T13:43:13;2.20;30.00
8422;DHT22;4248;48.196;10.924;2024-01-15T13:45:41;2.30;30.00
8422;DHT22;4248;48.196;10.924;2024-01-15T13:48:06;2.20;30.20
8422;DHT22;4248;48.196;10.924;2024-01-15T13:50:34;2.10;32.20
8422;DHT22;4248;48.196;10.924;2024-01-15T13:53:01;2.10;31.00
8422;DHT22;4248;48.196;10.924;2024-01-15T13:55:27;2.20;30.60
8422;DHT22;4248;48.196;10.924;2024-01-15T13:57:54;2.40;30.30
8422;DHT22;4248;48.196;10.924;2024-01-15T14:00:19;2.50;30.00
8422;DHT22;4248;48.196;10.924;2024-01-15T14:02:46;2.60;29.80
8422;DHT22;4248;48.196;10.924;2024-01-15T14:05:12;2.70;29.50
8422;DHT22;4248;48.196;10.924;2024-01-15T14:07:40;2.90;29.40
8422;DHT22;4248;48.196;10.924;2024-01-15T14:10:07;2.80;29.20
8422;DHT22;4248;48.196;10.924;2024-01-15T14:12:33;2.90;29.20
8422;DHT22;4248;48.196;10.924;2024-01-15T14:15:00;2.80;29.30
8422;DHT22;4248;48.196;10.924;2024-01-15T14:17:26;2.80;29.40
8422;DHT22;4248;48.196;10.924;2024-01-15T14:19:51;2.80;29.60
8422;DHT22;4248;48.196;10.924;2024-01-15T14:22:17;2.80;29.80
8422;DHT22;4248;48.196;10.924;2024-01-15T14:24:43;2.80;29.90
8422;DHT22;4248;48.196;10.924;2024-01-15T14:27:08;2.70;29.90
8422;DHT22;4248;48.196;10.924;2024-01-15T14:29:35;2.70;30.00
8422;DHT22;4248;48.196;10.924;2024-01-15T14:32:01;2.80;30.00
8422;DHT22;4248;48.196;10.924;2024-01-15T14:34:27;2.70;30.00
8422;DHT22;4248;48.196;10.924;2024-01-15T14:36:53;2.70;30.00
8422;DHT22;4248;48.196;10.924;2024-01-15T14:39:20;2.70;29.80
8422;DHT22;4248;48.196;10.924;2024-01-15T14:41:46;2.60;30.00
8422;DHT22;4248;48.196;10.924;2024-01-15T14:44:12;2.60;30.10
8422;DHT22;4248;48.196;10.924;2024-01-15T14:46:38;2.50;30.20
8422;DHT22;4248;48.196;10.924;2024-01-15T14:49:03;2.50;30.30
8422;DHT22;4248;48.196;10.924;2024-01-15T14:51:29;2.50;30.10
8422;DHT22;4248;48.196;10.924;2024-01-15T14:53:55;2.50;30.00
8422;DHT22;4248;48.196;10.924;2024-01-15T14:56:20;2.40;31.10
8422;DHT22;4248;48.196;10.924;2024-01-15T14:58:46;2.30;30.10
8422;DHT22;4248;48.196;10.924;2024-01-15T15:01:12;2.30;30.10
8422;DHT22;4248;48.196;10.924;2024-01-15T15:03:38;2.30;30.10
8422;DHT22;4248;48.196;10.924;2024-01-15T15:06:04;2.30;30.20
8422;DHT22;4248;48.196;10.924;2024-01-15T15:08:30;2.20;30.30
8422;DHT22;4248;48.196;10.924;2024-01-15T15:10:55;2.10;31.70
8422;DHT22;4248;48.196;10.924;2024-01-15T15:13:22;1.90;31.10
8422;DHT22;4248;48.196;10.924;2024-01-15T15:15:48;1.90;32.00
8422;DHT22;4248;48.196;10.924;2024-01-15T15:18:14;1.80;32.30
8422;DHT22;4248;48.196;10.924;2024-01-15T15:20:39;1.80;32.30
8422;DHT22;4248;48.196;10.924;2024-01-15T15:23:05;1.60;34.30
8422;DHT22;4248;48.196;10.924;2024-01-15T15:25:34;1.50;36.10
8422;DHT22;4248;48.196;10.924;2024-01-15T15:28:01;1.50;37.20
8422;DHT22;4248;48.196;10.924;2024-01-15T15:30:26;1.40;38.20
8422;DHT22;4248;48.196;10.924;2024-01-15T15:32:52;1.40;38.40
8422;DHT22;4248;48.196;10.924;2024-01-15T15:35:17;1.40;39.30
8422;DHT22;4248;48.196;10.924;2024-01-15T15:37:43;1.30;40.70
8422;DHT22;4248;48.196;10.924;2024-01-15T15:40:09;1.20;42.00
8422;DHT22;4248;48.196;10.924;2024-01-15T15:42:36;1.20;42.60
8422;DHT22;4248;48.196;10.924;2024-01-15T15:45:05;1.20;42.90
8422;DHT22;4248;48.196;10.924;2024-01-15T15:47:31;1.30;42.70
8422;DHT22;4248;48.196;10.924;2024-01-15T15:49:58;1.10;45.00
8422;DHT22;4248;48.196;10.924;2024-01-15T15:52:23;1.00;46.70
8422;DHT22;4248;48.196;10.924;2024-01-15T15:54:49;1.00;50.20
8422;DHT22;4248;48.196;10.924;2024-01-15T15:57:15;0.90;51.00